Weather History for KTWM - November, 2012

Change the Weather History Date:

Tuesday, November 27, 2012

  Actual Average Record
Temperature  
Mean Temperature 20 °F -  
Max Temperature 26 °F 34 °F 59 °F (1998)
Min Temperature 14 °F 20 °F -7 °F (1985)
Degree Days  
Heating Degree Days 45    
Moisture  
Dew Point 13 °F    
Average Humidity 76    
Maximum Humidity 86    
Minimum Humidity 68    
Precipitation  
Precipitation 0.00 in - - ()
Sea Level Pressure  
Sea Level Pressure 30.08 in    
Wind  
Wind Speed 6 mph (WSW)    
Max Wind Speed 8 mph    
Max Gust Speed -    
Visibility 7 miles    
Events Snow    
Averages and records for this station are not official NWS values.
T = Trace of Precipitation, MM = Missing Value Source: NWS Daily Summary

Daily Weather History Graph

Daily Weather History Graph

Search for Another Location

Airport or City:

Trip Planner

Search our weather history database for the weather conditions in past years. The results will help you decide how hot, cold, wet, or windy it might be!

Date:

Astronomy

Nov. 27, 2012 Rise Set
Actual Time 7:27 AM CST 4:21 PM CST
Civil Twilight 6:53 AM CST 4:55 PM CST
Nautical Twilight 6:15 AM CST 5:33 PM CST
Astronomical Twilight 5:38 AM CST 6:10 PM CST
Moon 3:54 PM CST (11/27) 6:31 AM CST (11/27)
Length of Visible Light 10h 02m
Length of Day
8h 53m
Waxing Gibbous, 99% of the Moon is Illuminated
Nov 27
Waxing Gibbous
Nov 28
Full
Dec 6
Last Quarter
Dec 13
New
Dec 19
First Quarter

Hourly Weather History & Observations

Time (CST) Temp. Windchill Dew Point Humidity Pressure Visibility Wind Dir Wind Speed Gust Speed Precip Events Conditions
12:11 AM 15.8 °F 6.1 °F 6.8 °F 68% 30.19 in 10.0 mi SW 6.9 mph - N/A   Overcast
12:31 AM 15.8 °F 8.6 °F 6.8 °F 68% 30.18 in 10.0 mi SW 4.6 mph - N/A   Overcast
12:51 AM 15.8 °F 8.6 °F 6.8 °F 68% 30.18 in 7.0 mi SSW 4.6 mph - N/A Snow Light Snow
1:11 AM 14.0 °F 6.5 °F 8.6 °F 79% 30.17 in 3.0 mi SSW 4.6 mph - N/A Snow Light Snow
1:51 AM 14.0 °F 5.1 °F 8.6 °F 79% 30.16 in 10.0 mi SSW 5.8 mph - N/A   Overcast
2:11 AM 14.0 °F 3.9 °F 8.6 °F 79% 30.16 in 10.0 mi SSW 6.9 mph - N/A Snow Light Snow
2:31 AM 14.0 °F 3.9 °F 8.6 °F 79% 30.15 in 10.0 mi SW 6.9 mph - N/A   Overcast
2:51 AM 15.8 °F 7.2 °F 8.6 °F 73% 30.14 in 10.0 mi SW 5.8 mph - N/A   Overcast
3:12 AM 15.8 °F 7.2 °F 8.6 °F 73% 30.13 in 10.0 mi SSW 5.8 mph - N/A   Overcast
3:31 AM 15.8 °F 6.1 °F 10.4 °F 79% 30.13 in 7.0 mi SW 6.9 mph - N/A Snow Light Snow
3:51 AM 15.8 °F 8.6 °F 10.4 °F 79% 30.13 in 3.0 mi SW 4.6 mph - N/A Snow Light Snow
4:11 AM 15.8 °F 7.2 °F 10.4 °F 79% 30.11 in 1.8 mi SW 5.8 mph - N/A Snow Light Snow
4:31 AM 15.8 °F 7.2 °F 10.4 °F 79% 30.11 in 2.0 mi SSW 5.8 mph - N/A Snow Light Snow
4:52 AM 15.8 °F 8.6 °F 10.4 °F 79% 30.10 in 3.0 mi SSW 4.6 mph - N/A Snow Light Snow
5:11 AM 15.8 °F 7.2 °F 10.4 °F 79% 30.09 in 4.0 mi SSW 5.8 mph - N/A Snow Light Snow
5:31 AM 15.8 °F 7.2 °F 10.4 °F 79% 30.09 in 7.0 mi SW 5.8 mph - N/A Snow Light Snow
5:52 AM 14.0 °F 5.1 °F 10.4 °F 86% 30.09 in 10.0 mi SW 5.8 mph - N/A   Mostly Cloudy
6:11 AM 14.0 °F 6.5 °F 10.4 °F 86% 30.08 in 10.0 mi SW 4.6 mph - N/A   Scattered Clouds
6:31 AM 14.0 °F 5.1 °F 8.6 °F 79% 30.08 in 10.0 mi SW 5.8 mph - N/A   Scattered Clouds
6:52 AM 14.0 °F 5.1 °F 8.6 °F 79% 30.07 in 10.0 mi WSW 5.8 mph - N/A   Scattered Clouds
7:11 AM 14.0 °F 5.1 °F 8.6 °F 79% 30.07 in 10.0 mi SW 5.8 mph - N/A   Scattered Clouds
7:31 AM 14.0 °F 5.1 °F 8.6 °F 79% 30.07 in 10.0 mi SW 5.8 mph - N/A   Scattered Clouds
7:52 AM 14.0 °F 6.5 °F 8.6 °F 79% 30.07 in 10.0 mi SW 4.6 mph - N/A   Mostly Cloudy
8:11 AM 15.8 °F 7.2 °F 10.4 °F 79% 30.07 in 10.0 mi SW 5.8 mph - N/A   Mostly Cloudy
8:31 AM 15.8 °F 7.2 °F 10.4 °F 79% 30.07 in 3.0 mi SW 5.8 mph - N/A Snow Light Snow
8:51 AM 15.8 °F 6.1 °F 10.4 °F 79% 30.07 in 2.0 mi SW 6.9 mph - N/A Snow Light Snow
9:31 AM 15.8 °F 6.1 °F 10.4 °F 79% 30.06 in 0.8 mi SW 6.9 mph - N/A Snow Light Snow
9:51 AM 17.6 °F 8.2 °F 12.2 °F 79% 30.06 in 0.8 mi SSW 6.9 mph - N/A Snow Light Snow
10:11 AM 17.6 °F 10.7 °F 12.2 °F 79% 30.06 in 1.2 mi SW 4.6 mph - N/A Snow Light Snow
10:31 AM 19.4 °F 11.5 °F 14.0 °F 80% 30.05 in 1.8 mi SW 5.8 mph - N/A Snow Light Snow
10:51 AM 21.2 °F 11.7 °F 15.8 °F 80% 30.05 in 4.0 mi WSW 8.1 mph - N/A Snow Light Snow
11:12 AM 23.0 °F 14.7 °F 15.8 °F 74% 30.04 in 5.0 mi WSW 6.9 mph - N/A   Haze
11:31 AM 23.0 °F 14.7 °F 15.8 °F 74% 30.03 in 4.0 mi West 6.9 mph - N/A Snow Light Snow
11:51 AM 23.0 °F 13.9 °F 15.8 °F 74% 30.03 in 1.8 mi WSW 8.1 mph - N/A Snow Light Snow
12:12 PM 23.0 °F 14.7 °F 17.6 °F 80% 30.02 in 2.0 mi West 6.9 mph - N/A Snow Light Snow
12:31 PM 23.0 °F 14.7 °F 17.6 °F 80% 30.02 in 2.0 mi WSW 6.9 mph - N/A Snow Light Snow
12:51 PM 23.0 °F 14.7 °F 17.6 °F 80% 30.02 in 2.5 mi WSW 6.9 mph - N/A Snow Light Snow
1:12 PM 24.8 °F 19.1 °F 17.6 °F 74% 30.01 in 3.0 mi WSW 4.6 mph - N/A Snow Light Snow
1:31 PM 24.8 °F 19.1 °F 17.6 °F 74% 30.01 in 3.0 mi SW 4.6 mph - N/A Snow Light Snow
1:51 PM 24.8 °F 16.9 °F 17.6 °F 74% 30.01 in 2.5 mi SW 6.9 mph - N/A Snow Light Snow
2:12 PM 24.8 °F 17.9 °F 19.4 °F 80% 30.01 in 1.8 mi WSW 5.8 mph - N/A Snow Light Snow
2:31 PM 24.8 °F 19.1 °F 19.4 °F 80% 30.01 in 2.0 mi West 4.6 mph - N/A Snow Light Snow
2:51 PM 26.6 °F 20.0 °F 19.4 °F 74% 30.01 in 7.0 mi West 5.8 mph - N/A   Overcast
3:12 PM 26.6 °F 22.6 °F 17.6 °F 69% 30.02 in 10.0 mi WNW 3.5 mph - N/A   Mostly Cloudy
3:51 PM 24.8 °F 17.9 °F 17.6 °F 74% 30.03 in 10.0 mi West 5.8 mph - N/A   Overcast
4:12 PM 24.8 °F 17.9 °F 17.6 °F 74% 30.03 in 10.0 mi WSW 5.8 mph - N/A   Overcast
4:31 PM 24.8 °F 19.1 °F 17.6 °F 74% 30.03 in 10.0 mi West 4.6 mph - N/A   Overcast
4:51 PM 24.8 °F 19.1 °F 17.6 °F 74% 30.04 in 10.0 mi WSW 4.6 mph - N/A   Overcast
5:11 PM 24.8 °F 17.9 °F 17.6 °F 74% 30.04 in 10.0 mi WSW 5.8 mph - N/A   Overcast
5:31 PM 24.8 °F 17.9 °F 17.6 °F 74% 30.04 in 10.0 mi SW 5.8 mph - N/A   Overcast
5:51 PM 23.0 °F 15.8 °F 17.6 °F 80% 30.04 in 10.0 mi SW 5.8 mph - N/A   Scattered Clouds
6:11 PM 23.0 °F 17.0 °F 17.6 °F 80% 30.05 in 10.0 mi WSW 4.6 mph - N/A   Mostly Cloudy
6:52 PM 23.0 °F 17.0 °F 17.6 °F 80% 30.05 in 10.0 mi West 4.6 mph - N/A Snow Light Snow
7:11 PM 24.8 °F 16.9 °F 17.6 °F 74% 30.06 in 10.0 mi West 6.9 mph - N/A   Overcast
7:31 PM 24.8 °F 19.1 °F 17.6 °F 74% 30.06 in 10.0 mi West 4.6 mph - N/A   Overcast
7:52 PM 24.8 °F 17.9 °F 17.6 °F 74% 30.07 in 10.0 mi WNW 5.8 mph - N/A Snow Light Snow
8:11 PM 24.8 °F 20.5 °F 17.6 °F 74% 30.07 in 10.0 mi NW 3.5 mph - N/A   Overcast
8:31 PM 23.0 °F 18.4 °F 15.8 °F 74% 30.08 in 10.0 mi WNW 3.5 mph - N/A   Overcast
8:52 PM 21.2 °F 14.9 °F 15.8 °F 80% 30.09 in 10.0 mi WNW 4.6 mph - N/A   Overcast
9:11 PM 21.2 °F 14.9 °F 14.0 °F 74% 30.09 in 10.0 mi West 4.6 mph - N/A   Overcast
9:31 PM 21.2 °F 14.9 °F 14.0 °F 74% 30.09 in 10.0 mi West 4.6 mph - N/A   Overcast
9:52 PM 19.4 °F 11.5 °F 12.2 °F 74% 30.10 in 10.0 mi West 5.8 mph - N/A   Overcast
10:11 PM 19.4 °F 11.5 °F 12.2 °F 74% 30.10 in 10.0 mi NW 5.8 mph - N/A   Overcast
10:31 PM 19.4 °F 11.5 °F 10.4 °F 68% 30.11 in 10.0 mi WNW 5.8 mph - N/A   Mostly Cloudy
10:51 PM 19.4 °F 14.3 °F 10.4 °F 68% 30.12 in 10.0 mi West 3.5 mph - N/A   Mostly Cloudy
11:11 PM 17.6 °F 10.7 °F 10.4 °F 73% 30.12 in 10.0 mi West 4.6 mph - N/A   Overcast
11:51 PM 17.6 °F 12.3 °F 10.4 °F 73% 30.13 in 10.0 mi West 3.5 mph - N/A   Scattered Clouds